Time;durP1;ratioP1;P1;durP2;ratioP2;P2;SDS_P1;SDS_P2;PMS_P1;PMS_P2;Temp;Humidity;BMP_temperature;BMP_pressure;BME280_temperature;BME280_humidity;BME280_pressure;Samples;Min_cycle;Max_cycle;Signal;HPM_P1;HPM_P2
2021/03/28 00:01:22;;;;;;;4.63;1.83;;;23.00;42.20;;;;;;5061120;28;47117;-53
2021/03/28 00:03:54;;;;;;;2.80;1.40;;;23.00;42.20;;;;;;5066913;28;45382;-52
2021/03/28 00:06:29;;;;;;;2.33;1.33;;;23.00;42.20;;;;;;5068128;28;45302;-52
2021/03/28 00:09:33;;;;;;;2.72;1.60;;;23.00;42.20;;;;;;5068448;28;45320;-52
2021/03/28 00:12:23;;;;;;;2.63;1.60;;;23.00;42.20;;;;;;5063808;28;46300;-53
2021/03/28 00:14:52;;;;;;;3.22;1.95;;;23.00;42.30;;;;;;5064700;28;45480;-52
2021/03/28 00:17:20;;;;;;;3.53;1.65;;;22.90;42.20;;;;;;5067166;28;45464;-53
2021/03/28 00:20:22;;;;;;;2.85;1.58;;;23.00;42.30;;;;;;5068276;28;45385;-55
2021/03/28 00:23:23;;;;;;;2.85;1.40;;;22.90;42.20;;;;;;5065964;28;45387;-53
2021/03/28 00:25:56;;;;;;;3.95;1.40;;;22.90;42.20;;;;;;5069017;28;45522;-53
2021/03/28 00:28:31;;;;;;;3.58;1.50;;;22.90;42.30;;;;;;5066850;28;45519;-54
2021/03/28 00:31:13;;;;;;;3.00;1.70;;;22.90;42.20;;;;;;5066138;28;45395;-54
2021/03/28 00:33:39;;;;;;;2.90;1.70;;;22.90;42.30;;;;;;5067260;28;47003;-54
2021/03/28 00:36:06;;;;;;;3.35;1.88;;;22.90;42.30;;;;;;5066251;28;45402;-53
2021/03/28 00:38:37;;;;;;;2.75;1.40;;;22.90;42.30;;;;;;5059235;28;45515;-53
2021/03/28 00:41:15;;;;;;;3.22;1.40;;;22.90;42.30;;;;;;5058347;28;45189;-53
2021/03/28 00:43:46;;;;;;;2.28;1.30;;;22.90;42.20;;;;;;5062919;28;45710;-54
2021/03/28 00:46:41;;;;;;;3.05;1.40;;;22.90;42.20;;;;;;5046104;28;45172;-53
2021/03/28 00:49:20;;;;;;;3.17;1.90;;;22.90;42.30;;;;;;5066649;28;45385;-53
2021/03/28 00:51:47;;;;;;;4.22;1.75;;;22.90;42.30;;;;;;5051619;28;45428;-53
2021/03/28 00:54:20;;;;;;;3.45;1.42;;;22.90;42.20;;;;;;5049312;28;46181;-54
2021/03/28 00:56:51;;;;;;;2.50;1.00;;;22.80;42.20;;;;;;5049677;28;45411;-54
2021/03/28 00:59:30;;;;;;;3.30;1.55;;;22.80;42.20;;;;;;5048563;28;45426;-54
2021/03/28 01:02:13;;;;;;;3.15;1.30;;;22.80;42.20;;;;;;5065377;28;45558;-54
2021/03/28 01:04:42;;;;;;;2.75;1.50;;;22.90;42.20;;;;;;5066215;28;45444;-54
2021/03/28 01:07:19;;;;;;;3.10;1.60;;;22.80;42.20;;;;;;5068044;28;45314;-54
2021/03/28 01:10:18;;;;;;;2.50;1.27;;;22.80;42.20;;;;;;5053011;28;45225;-54
2021/03/28 01:13:12;;;;;;;3.13;1.58;;;22.80;42.20;;;;;;5071601;28;45379;-53
2021/03/28 01:16:02;;;;;;;2.53;1.10;;;22.80;42.20;;;;;;5070877;28;46460;-54
2021/03/28 01:18:35;;;;;;;2.08;1.25;;;22.80;42.50;;;;;;5069433;28;45834;-54
2021/03/28 01:21:20;;;;;;;2.50;1.40;;;22.80;42.30;;;;;;5053303;28;45336;-54
2021/03/28 01:23:46;;;;;;;2.38;1.40;;;22.80;42.20;;;;;;5049923;28;45412;-54
2021/03/28 01:26:29;;;;;;;2.85;1.30;;;22.80;42.30;;;;;;5048436;28;46070;-54
2021/03/28 01:29:00;;;;;;;2.90;1.50;;;22.80;42.30;;;;;;5056148;28;45338;-54
2021/03/28 01:31:32;;;;;;;2.30;1.25;;;22.80;42.20;;;;;;5052945;28;45280;-54
2021/03/28 01:34:08;;;;;;;2.25;1.20;;;22.70;42.20;;;;;;5068144;28;45291;-53
2021/03/28 01:37:06;;;;;;;2.90;1.20;;;22.80;42.20;;;;;;5070662;28;46259;-53
2021/03/28 01:39:59;;;;;;;2.67;1.30;;;22.80;42.20;;;;;;5068722;28;45391;-54
2021/03/28 01:42:25;;;;;;;2.88;1.27;;;22.80;42.20;;;;;;5058943;28;45288;-53
2021/03/28 01:45:10;;;;;;;3.00;1.30;;;22.70;42.20;;;;;;5050822;28;45189;-53
2021/03/28 01:47:39;;;;;;;;;;;22.70;42.10;;;;;;5061504;28;45983;-54
2021/03/28 01:50:13;;;;;;;2.47;1.30;;;22.60;42.10;;;;;;5069844;28;45319;-52
2021/03/28 01:52:45;;;;;;;2.33;1.25;;;22.70;42.20;;;;;;5050138;28;45352;-54
2021/03/28 01:55:34;;;;;;;2.63;1.42;;;22.70;42.20;;;;;;5069216;28;45473;-52
2021/03/28 01:58:23;;;;;;;2.40;1.20;;;22.70;42.10;;;;;;5069833;28;45284;-52
2021/03/28 02:01:00;;;;;;;3.10;1.40;;;22.70;42.10;;;;;;5067412;28;45532;-52
2021/03/28 02:03:47;;;;;;;2.10;1.05;;;22.70;42.10;;;;;;5098767;27;45559;-52
2021/03/28 02:06:45;;;;;;;2.28;1.08;;;22.70;42.10;;;;;;5067326;28;45305;-52
2021/03/28 02:09:33;;;;;;;3.17;1.48;;;22.70;42.10;;;;;;5070067;28;45340;-53
2021/03/28 02:12:05;;;;;;;2.63;1.10;;;22.70;42.20;;;;;;5068600;28;45415;-52
2021/03/28 02:14:33;;;;;;;2.85;1.05;;;22.70;42.10;;;;;;5070356;28;45362;-53
2021/03/28 02:17:26;;;;;;;3.78;1.27;;;22.70;42.20;;;;;;5063170;28;45523;-53
2021/03/28 02:20:07;;;;;;;3.00;1.30;;;22.70;42.10;;;;;;5068731;28;45471;-53
2021/03/28 02:23:15;;;;;;;2.20;1.08;;;22.60;42.10;;;;;;5052932;28;45307;-52
2021/03/28 02:25:53;;;;;;;2.20;1.20;;;22.60;42.10;;;;;;5054149;28;45567;-52
2021/03/28 02:28:48;;;;;;;2.67;1.08;;;22.60;42.10;;;;;;5066718;28;45558;-52
2021/03/28 02:31:52;;;;;;;2.55;1.05;;;22.60;42.10;;;;;;5067778;28;46104;-53
2021/03/28 02:34:35;;;;;;;2.63;1.17;;;22.60;42.10;;;;;;5061466;28;45345;-54
2021/03/28 02:37:01;;;;;;;2.70;1.15;;;22.60;42.10;;;;;;5067306;28;45332;-52
2021/03/28 02:39:36;;;;;;;2.25;1.05;;;22.60;42.20;;;;;;5069310;28;45450;-53
2021/03/28 02:42:02;;;;;;;2.00;1.05;;;22.60;42.10;;;;;;5066392;28;46133;-52
2021/03/28 02:44:53;;;;;;;2.53;1.20;;;22.60;42.10;;;;;;5049336;28;45290;-53
2021/03/28 02:47:40;;;;;;;2.15;1.08;;;22.60;42.10;;;;;;5059525;28;45573;-52
2021/03/28 02:50:48;;;;;;;2.35;1.42;;;22.60;42.10;;;;;;5069127;28;45321;-52
2021/03/28 02:53:53;;;;;;;2.15;1.17;;;22.60;42.70;;;;;;5059180;28;46152;-52
2021/03/28 02:56:54;;;;;;;3.03;1.23;;;22.60;42.10;;;;;;5064021;28;45417;-52
2021/03/28 02:59:47;;;;;;;2.17;1.10;;;22.60;42.10;;;;;;5058856;28;45519;-53
2021/03/28 03:02:28;;;;;;;2.55;1.30;;;22.50;42.10;;;;;;5069559;28;45338;-53
2021/03/28 03:05:23;;;;;;;1.85;0.90;;;22.60;42.20;;;;;;5049058;28;46494;-53
2021/03/28 03:08:08;;;;;;;2.70;1.10;;;22.60;42.20;;;;;;5063058;28;45484;-53
2021/03/28 03:10:58;;;;;;;2.55;1.02;;;22.50;42.10;;;;;;5067934;28;45436;-53
2021/03/28 03:13:41;;;;;;;2.17;0.90;;;22.50;42.10;;;;;;5069110;28;45518;-53
2021/03/28 03:16:13;;;;;;;2.28;1.00;;;22.50;42.10;;;;;;5061212;28;46184;-53
2021/03/28 03:18:44;;;;;;;2.70;1.15;;;22.50;42.10;;;;;;5063944;28;45423;-54
2021/03/28 03:21:13;;;;;;;2.03;1.05;;;22.50;42.00;;;;;;5065710;28;45383;-53
2021/03/28 03:24:10;;;;;;;2.00;1.05;;;22.50;42.10;;;;;;5049246;28;45449;-54
2021/03/28 03:26:53;;;;;;;2.15;1.00;;;22.50;42.00;;;;;;5048204;28;45272;-54
2021/03/28 03:29:56;;;;;;;1.98;1.05;;;22.50;42.20;;;;;;5056984;28;45324;-54
2021/03/28 03:32:56;;;;;;;2.13;0.93;;;22.50;42.10;;;;;;5069033;28;45329;-53
2021/03/28 03:35:46;;;;;;;2.17;1.15;;;22.50;42.10;;;;;;5068956;28;45444;-53
2021/03/28 03:38:23;;;;;;;2.05;0.98;;;22.50;42.10;;;;;;5068539;28;45407;-52
2021/03/28 03:40:58;;;;;;;2.28;1.10;;;22.50;42.10;;;;;;5068292;28;45352;-54
2021/03/28 03:43:55;;;;;;;2.75;1.48;;;22.50;42.10;;;;;;5068655;28;45244;-54
2021/03/28 03:46:46;;;;;;;1.85;0.93;;;22.50;42.10;;;;;;5065541;28;45334;-54
2021/03/28 03:49:23;;;;;;;2.28;1.20;;;22.50;42.10;;;;;;5051676;28;45488;-53
2021/03/28 03:52:29;;;;;;;2.33;1.10;;;22.50;42.10;;;;;;5067189;28;45378;-53
2021/03/28 03:55:22;;;;;;;2.67;1.20;;;22.50;42.10;;;;;;5067315;28;45355;-53
2021/03/28 03:57:53;;;;;;;2.03;1.10;;;22.50;42.10;;;;;;5069095;28;45327;-53
2021/03/28 04:00:18;;;;;;;2.33;1.17;;;22.40;42.00;;;;;;5050876;28;45975;-53
2021/03/28 04:03:05;;;;;;;2.58;1.23;;;22.50;42.10;;;;;;5068171;28;45289;-53
2021/03/28 04:05:48;;;;;;;2.58;1.20;;;22.40;42.00;;;;;;5068192;28;45228;-53
2021/03/28 04:08:50;;;;;;;2.33;1.20;;;22.40;42.10;;;;;;5068825;28;45449;-52
2021/03/28 04:11:56;;;;;;;1.85;0.90;;;22.50;42.00;;;;;;5067844;28;45244;-54
2021/03/28 04:14:40;;;;;;;2.30;1.10;;;22.50;41.90;;;;;;5047497;28;45552;-53
2021/03/28 04:17:47;;;;;;;2.80;1.15;;;22.50;42.10;;;;;;5067162;28;45213;-53
2021/03/28 04:20:58;;;;;;;2.33;1.10;;;22.60;42.00;;;;;;5055290;28;45427;-53
2021/03/28 04:24:01;;;;;;;2.20;0.90;;;22.60;42.00;;;;;;5049969;28;47183;-53
2021/03/28 04:26:50;;;;;;;3.10;1.40;;;22.60;42.00;;;;;;5066636;28;45476;-53
2021/03/28 04:29:16;;;;;;;2.65;1.17;;;22.60;41.90;;;;;;5047894;28;45297;-53
2021/03/28 04:31:54;;;;;;;2.00;1.00;;;22.60;42.20;;;;;;5050092;28;45355;-53
2021/03/28 04:34:30;;;;;;;2.70;1.30;;;22.70;41.90;;;;;;5066305;28;45466;-55
2021/03/28 04:37:01;;;;;;;2.70;1.42;;;22.70;41.80;;;;;;5066469;28;45346;-53
2021/03/28 04:39:34;;;;;;;1.55;0.93;;;22.70;41.80;;;;;;5067649;28;45406;-53
2021/03/28 04:42:13;;;;;;;2.08;1.10;;;22.70;41.80;;;;;;5065768;28;45212;-53
2021/03/28 04:45:05;;;;;;;1.95;0.90;;;22.80;41.80;;;;;;5066340;28;46953;-53
2021/03/28 04:47:42;;;;;;;2.80;1.05;;;22.80;41.70;;;;;;5067774;28;45315;-53
2021/03/28 04:50:32;;;;;;;1.80;0.88;;;22.80;41.70;;;;;;5067563;28;45212;-53
2021/03/28 04:53:35;;;;;;;2.47;0.93;;;22.80;41.70;;;;;;5068025;28;45357;-53
2021/03/28 04:56:22;;;;;;;1.73;0.80;;;22.80;41.60;;;;;;5068029;28;45366;-53
2021/03/28 04:59:11;;;;;;;2.30;1.20;;;22.80;41.70;;;;;;5067672;28;45301;-55
2021/03/28 05:01:39;;;;;;;2.45;1.23;;;22.90;41.60;;;;;;5039229;28;45361;-54
2021/03/28 05:04:27;;;;;;;1.85;1.20;;;22.90;41.60;;;;;;5066536;28;45343;-53
2021/03/28 05:07:27;;;;;;;2.13;0.90;;;22.90;41.60;;;;;;5067200;28;46062;-54
2021/03/28 05:10:31;;;;;;;2.08;0.80;;;22.90;41.40;;;;;;5065596;28;45369;-53
2021/03/28 05:13:02;;;;;;;1.95;0.90;;;22.90;41.40;;;;;;5067324;28;45340;-53
2021/03/28 05:16:01;;;;;;;1.88;0.82;;;22.90;41.50;;;;;;5065538;28;46081;-54
2021/03/28 05:18:48;;;;;;;2.17;1.10;;;22.90;41.40;;;;;;5057152;28;46841;-53
2021/03/28 05:21:29;;;;;;;2.30;0.90;;;22.90;41.40;;;;;;5065959;28;45489;-53
2021/03/28 05:24:26;;;;;;;1.65;0.88;;;23.00;41.40;;;;;;5065333;28;45393;-53
2021/03/28 05:27:37;;;;;;;1.60;0.80;;;23.00;41.30;;;;;;5066034;28;45339;-54
2021/03/28 05:30:27;;;;;;;1.50;0.80;;;23.10;41.40;;;;;;5040660;28;46293;-55
2021/03/28 05:33:30;;;;;;;2.17;1.05;;;23.10;41.30;;;;;;5067144;28;45193;-55
2021/03/28 05:36:26;;;;;;;1.90;0.95;;;23.20;41.30;;;;;;5065630;28;45287;-54
2021/03/28 05:39:06;;;;;;;2.17;1.20;;;23.20;41.30;;;;;;5066776;28;45583;-53
2021/03/28 05:41:35;;;;;;;1.38;0.73;;;23.20;41.30;;;;;;5065878;28;46191;-56
2021/03/28 05:44:22;;;;;;;2.08;0.93;;;23.20;41.20;;;;;;5064481;28;45391;-54
2021/03/28 05:46:57;;;;;;;1.95;0.95;;;23.30;41.20;;;;;;5066588;28;45354;-54
2021/03/28 05:49:44;;;;;;;1.92;1.00;;;23.30;41.30;;;;;;5065959;28;45486;-54
2021/03/28 05:52:43;;;;;;;1.75;0.82;;;23.30;41.30;;;;;;5046531;28;46460;-54
2021/03/28 05:55:29;;;;;;;1.60;0.80;;;23.30;41.20;;;;;;5059684;28;45352;-54
2021/03/28 05:58:12;;;;;;;;;;;23.40;41.30;;;;;;5067065;28;45468;-54
2021/03/28 06:00:47;;;;;;;4.22;1.00;;;23.40;42.00;;;;;;5066639;28;45485;-54
2021/03/28 06:03:34;;;;;;;2.03;0.85;;;23.40;41.30;;;;;;5067382;28;45501;-53
2021/03/28 06:06:24;;;;;;;2.50;0.90;;;23.40;41.30;;;;;;5065642;28;45427;-54
2021/03/28 06:09:10;;;;;;;1.88;0.90;;;23.50;41.20;;;;;;5067772;28;45482;-54
2021/03/28 06:12:04;;;;;;;2.10;0.80;;;23.50;41.20;;;;;;5067011;28;45519;-53
2021/03/28 06:14:34;;;;;;;2.65;0.80;;;23.50;41.00;;;;;;5066659;28;46117;-54
2021/03/28 06:17:22;;;;;;;2.25;1.05;;;23.50;41.10;;;;;;5080907;28;45306;-53
2021/03/28 06:20:13;;;;;;;2.22;0.70;;;23.50;40.90;;;;;;5067007;28;45553;-54
2021/03/28 06:23:16;;;;;;;1.65;0.80;;;23.60;40.90;;;;;;5066230;28;46655;-53
2021/03/28 06:26:06;;;;;;;1.70;0.85;;;23.60;40.90;;;;;;5068191;28;46975;-53
2021/03/28 06:29:03;;;;;;;2.47;1.05;;;23.60;40.90;;;;;;5068324;28;45664;-53
2021/03/28 06:32:00;;;;;;;2.03;0.80;;;23.70;41.10;;;;;;5065697;28;45542;-54
2021/03/28 06:34:47;;;;;;;1.70;0.80;;;23.70;40.90;;;;;;5067125;28;45421;-54
2021/03/28 06:37:47;;;;;;;3.75;0.88;;;23.70;40.90;;;;;;5066598;28;46138;-54
2021/03/28 06:40:38;;;;;;;1.63;0.80;;;23.70;40.90;;;;;;5065826;28;45543;-54
2021/03/28 06:43:15;;;;;;;1.42;0.90;;;23.70;40.90;;;;;;5064628;28;45366;-54
2021/03/28 06:46:02;;;;;;;1.60;0.77;;;23.80;40.90;;;;;;5066148;28;45344;-54
2021/03/28 06:49:13;;;;;;;2.03;0.80;;;23.80;41.00;;;;;;5068541;28;46541;-54
2021/03/28 06:51:51;;;;;;;2.17;1.08;;;23.90;40.90;;;;;;5066799;28;45397;-54
2021/03/28 06:54:38;;;;;;;2.05;0.82;;;23.90;40.90;;;;;;5067063;28;45511;-54
2021/03/28 06:57:40;;;;;;;1.63;0.80;;;23.90;40.90;;;;;;5062721;28;45460;-53
2021/03/28 07:00:18;;;;;;;1.83;0.80;;;23.90;40.80;;;;;;5062821;28;47124;-53
2021/03/28 07:03:23;;;;;;;2.95;0.98;;;23.90;40.80;;;;;;5063106;28;45737;-53
2021/03/28 07:06:05;;;;;;;2.83;0.55;;;24.00;40.80;;;;;;5063297;28;45368;-52
2021/03/28 07:08:52;;;;;;;2.70;0.90;;;24.00;40.90;;;;;;5065566;28;45505;-51
2021/03/28 07:12:17;;;;;;;2.60;0.93;;;24.00;40.80;;;;;;5066213;28;46261;-52
2021/03/28 07:15:19;;;;;;;6.88;1.38;;;23.90;40.40;;;;;;5064275;28;46532;-52
2021/03/28 07:18:16;;;;;;;7.32;1.15;;;23.90;39.80;;;;;;5061526;28;45734;-62
2021/03/28 07:20:54;;;;;;;6.07;1.50;;;23.80;39.80;;;;;;5031442;28;45245;-59
2021/03/28 07:23:57;;;;;;;4.15;1.23;;;23.90;39.30;;;;;;5064730;28;47060;-61
2021/03/28 07:26:50;;;;;;;3.35;1.42;;;23.80;39.10;;;;;;5066116;28;45507;-61
2021/03/28 07:29:52;;;;;;;6.50;1.95;;;23.80;38.50;;;;;;5066293;28;45414;-60
2021/03/28 07:32:18;;;;;;;5.50;1.70;;;23.80;38.50;;;;;;5066373;28;45470;-60
2021/03/28 07:35:20;;;;;;;6.60;1.70;;;23.80;38.70;;;;;;5065759;28;47105;-61
2021/03/28 07:37:52;;;;;;;5.38;1.48;;;23.80;38.00;;;;;;5065413;28;45450;-61
2021/03/28 07:40:42;;;;;;;4.82;1.40;;;23.80;38.40;;;;;;5069821;28;45188;-57
2021/03/28 07:43:26;;;;;;;5.85;1.20;;;23.90;39.00;;;;;;5060264;28;45881;-58
2021/03/28 07:46:42;;;;;;;8.18;1.83;;;24.10;39.10;;;;;;5061995;28;47141;-63
2021/03/28 07:49:17;;;;;;;5.53;1.55;;;24.30;39.40;;;;;;5040803;28;45530;-61
2021/03/28 07:52:01;;;;;;;3.88;1.67;;;24.20;38.70;;;;;;5064921;28;45409;-58
2021/03/28 07:54:48;;;;;;;2.90;1.27;;;24.00;34.70;;;;;;5065388;28;45367;-55
2021/03/28 07:57:38;;;;;;;5.05;1.27;;;23.90;33.40;;;;;;5062298;28;46203;-56
2021/03/28 08:00:12;;;;;;;4.30;1.35;;;23.70;34.20;;;;;;5066765;28;45357;-59
2021/03/28 08:03:16;;;;;;;3.33;1.23;;;23.70;31.60;;;;;;5063775;28;45402;-62
2021/03/28 08:06:20;;;;;;;3.83;1.23;;;23.90;34.90;;;;;;5064455;28;45483;-62
2021/03/28 08:09:04;;;;;;;3.38;1.08;;;23.90;35.10;;;;;;5058878;28;46214;-60
2021/03/28 08:12:07;;;;;;;7.32;1.88;;;23.90;34.50;;;;;;5059108;28;45387;-59
2021/03/28 08:14:45;;;;;;;4.43;1.27;;;24.00;34.60;;;;;;5061555;28;45343;-63
2021/03/28 08:17:48;;;;;;;6.05;1.13;;;24.10;35.90;;;;;;5063577;28;45479;-63
2021/03/28 08:20:39;;;;;;;4.57;1.23;;;24.20;35.60;;;;;;5063605;28;46879;-65
2021/03/28 08:23:25;;;;;;;4.80;1.33;;;24.30;35.80;;;;;;5062594;28;45269;-63
2021/03/28 08:25:56;;;;;;;4.55;1.17;;;24.30;36.00;;;;;;5063741;28;45311;-64
2021/03/28 08:28:40;;;;;;;4.25;1.35;;;24.40;36.20;;;;;;5062008;28;45505;-65
2021/03/28 08:31:24;;;;;;;3.03;1.10;;;24.50;36.80;;;;;;5059521;28;46277;-67
2021/03/28 08:34:21;;;;;;;6.57;2.00;;;24.50;36.70;;;;;;5028694;28;45487;-58
2021/03/28 08:36:57;;;;;;;4.65;1.58;;;24.60;36.70;;;;;;5064233;28;45400;-64
2021/03/28 08:39:46;;;;;;;4.15;1.10;;;24.70;36.90;;;;;;5060354;28;45573;-68
2021/03/28 08:42:30;;;;;;;7.72;1.48;;;24.70;37.00;;;;;;5062493;28;46274;-71
2021/03/28 08:45:06;;;;;;;5.60;1.40;;;24.70;37.10;;;;;;5053341;28;45747;-65
2021/03/28 08:47:41;;;;;;;5.28;1.60;;;24.70;37.10;;;;;;5056762;28;45387;-69
2021/03/28 08:50:24;;;;;;;3.65;1.15;;;24.80;37.70;;;;;;5062933;28;45323;-72
2021/03/28 08:53:18;;;;;;;4.40;1.00;;;24.80;37.10;;;;;;5061561;28;46228;-67
2021/03/28 08:56:14;;;;;;;3.00;1.13;;;24.90;37.20;;;;;;5051770;28;45580;-65
2021/03/28 08:58:53;;;;;;;4.90;1.48;;;24.90;37.20;;;;;;5063696;28;45513;-68
2021/03/28 09:01:57;;;;;;;3.63;1.00;;;24.90;37.40;;;;;;5064536;28;45541;-70
2021/03/28 09:04:24;;;;;;;2.33;1.02;;;24.90;37.30;;;;;;5061297;28;47119;-71
2021/03/28 09:06:50;;;;;;;4.07;1.10;;;24.90;37.40;;;;;;5061941;28;45473;-71
2021/03/28 09:09:41;;;;;;;5.25;1.40;;;25.00;37.40;;;;;;5066785;28;45339;-68
2021/03/28 09:12:31;;;;;;;2.65;0.90;;;25.00;37.30;;;;;;5066237;28;45323;-72
2021/03/28 09:15:29;;;;;;;4.85;1.10;;;25.00;37.30;;;;;;5050272;28;45470;-70
2021/03/28 09:18:10;;;;;;;3.20;1.30;;;25.10;37.40;;;;;;5044302;28;45454;-70
2021/03/28 09:20:55;;;;;;;2.63;1.00;;;25.00;37.40;;;;;;5062680;28;45465;-68
2021/03/28 09:23:33;;;;;;;3.75;0.90;;;25.10;37.50;;;;;;5060267;28;45487;-68
2021/03/28 09:26:12;;;;;;;4.13;1.10;;;25.10;37.50;;;;;;5045713;28;46041;-67
2021/03/28 09:29:04;;;;;;;5.85;2.85;;;25.10;38.00;;;;;;5059315;28;45442;-67
2021/03/28 09:31:54;;;;;;;4.25;2.15;;;25.00;37.50;;;;;;5064147;28;45575;-66
2021/03/28 09:34:57;;;;;;;5.25;2.38;;;25.00;37.40;;;;;;5067473;28;45689;-67
2021/03/28 09:37:39;;;;;;;4.30;1.98;;;25.00;37.50;;;;;;5069780;28;45422;-67
2021/03/28 09:40:13;;;;;;;3.80;2.10;;;25.00;37.50;;;;;;5058273;28;45465;-66
2021/03/28 09:43:20;;;;;;;4.07;2.05;;;25.00;37.40;;;;;;5065644;28;45259;-67
2021/03/28 09:45:58;;;;;;;4.55;2.17;;;25.00;37.40;;;;;;5058989;28;45729;-66
2021/03/28 09:48:31;;;;;;;6.55;2.03;;;25.00;37.40;;;;;;5069406;28;47044;-66
2021/03/28 09:51:03;;;;;;;3.55;2.00;;;25.00;37.40;;;;;;5066861;28;45424;-66
2021/03/28 09:54:21;;;;;;;4.85;1.70;;;24.90;37.50;;;;;;5050661;28;45454;-66
2021/03/28 09:56:59;;;;;;;4.05;2.05;;;24.90;37.30;;;;;;5064511;28;45383;-66
2021/03/28 09:59:37;;;;;;;19.77;13.82;;;24.90;37.40;;;;;;5062384;28;46203;-60
2021/03/28 10:02:05;;;;;;;51.08;35.67;;;24.90;37.60;;;;;;5068287;28;45473;-60
2021/03/28 10:04:57;;;;;;;75.30;52.22;;;24.90;38.20;;;;;;5070228;28;45445;-60
2021/03/28 10:07:46;;;;;;;102.28;72.20;;;24.90;38.70;;;;;;5057152;28;45293;-59
2021/03/28 10:10:39;;;;;;;124.05;81.55;;;24.90;39.00;;;;;;5067005;28;46345;-58
2021/03/28 10:13:42;;;;;;;130.80;87.45;;;24.80;39.30;;;;;;5069682;28;45312;-64
2021/03/28 10:16:11;;;;;;;137.23;95.57;;;24.70;39.60;;;;;;5065571;28;45352;-74
2021/03/28 10:18:44;;;;;;;138.55;96.35;;;24.70;39.70;;;;;;5067416;28;45541;-70
2021/03/28 10:21:28;;;;;;;143.75;101.28;;;24.70;40.10;;;;;;5065764;28;45438;-68
2021/03/28 10:24:15;;;;;;;142.70;98.83;;;24.70;40.70;;;;;;5053623;28;45509;-66
2021/03/28 10:27:18;;;;;;;139.00;93.00;;;24.70;40.50;;;;;;5067444;28;45414;-70
2021/03/28 10:29:51;;;;;;;126.13;89.07;;;24.70;40.50;;;;;;5066660;28;45452;-68
2021/03/28 10:32:36;;;;;;;134.23;96.07;;;24.70;40.40;;;;;;5046836;28;45228;-68
2021/03/28 10:35:16;;;;;;;120.82;82.38;;;24.60;40.80;;;;;;5058620;28;45764;-68
2021/03/28 10:38:03;;;;;;;101.03;72.00;;;24.50;40.40;;;;;;5068697;28;45561;-68
2021/03/28 10:40:41;;;;;;;107.93;74.78;;;24.40;39.90;;;;;;5047742;28;45403;-68
2021/03/28 10:43:34;;;;;;;106.35;76.70;;;24.30;40.30;;;;;;5064035;28;46951;-71
2021/03/28 10:46:12;;;;;;;108.10;73.28;;;24.30;40.20;;;;;;5067078;28;45315;-71
2021/03/28 10:49:06;;;;;;;95.40;69.55;;;24.30;40.10;;;;;;5068138;28;45406;-71
2021/03/28 10:51:57;;;;;;;87.05;55.72;;;24.20;40.00;;;;;;5067321;28;45517;-61
2021/03/28 10:55:16;;;;;;;81.55;56.35;;;24.20;38.80;;;;;;5068895;28;47156;-62
2021/03/28 10:57:48;;;;;;;83.75;55.17;;;24.30;39.10;;;;;;5044466;28;45496;-74
2021/03/28 11:00:26;;;;;;;77.53;55.40;;;24.40;39.30;;;;;;5063247;28;45578;-73
2021/03/28 11:03:20;;;;;;;77.43;51.90;;;24.40;39.30;;;;;;5065625;28;45377;-71
2021/03/28 11:06:00;;;;;;;74.95;52.75;;;24.50;39.30;;;;;;5064884;28;46610;-73
2021/03/28 11:08:30;;;;;;;73.63;50.65;;;24.50;39.30;;;;;;5070672;28;45549;-65
2021/03/28 11:11:11;;;;;;;77.82;51.47;;;24.60;39.20;;;;;;5069554;28;45370;-66
2021/03/28 11:13:56;;;;;;;72.22;47.67;;;24.60;39.20;;;;;;5066262;28;45628;-71
2021/03/28 11:16:25;;;;;;;;;;;24.60;39.20;;;;;;5066555;28;47035;-67
2021/03/28 11:19:28;;;;;;;66.13;46.15;;;24.50;39.10;;;;;;5059328;28;45331;-71
2021/03/28 11:22:13;;;;;;;65.80;46.72;;;24.60;39.20;;;;;;5068409;28;45330;-70
2021/03/28 11:24:51;;;;;;;61.15;43.60;;;24.60;39.10;;;;;;5074079;28;45496;-68
2021/03/28 11:27:20;;;;;;;59.03;42.38;;;24.60;39.10;;;;;;5065538;28;46134;-71
2021/03/28 11:30:13;;;;;;;65.55;43.08;;;24.50;39.00;;;;;;5067853;28;45465;-72
2021/03/28 11:32:57;;;;;;;57.28;40.17;;;24.50;38.90;;;;;;5052726;28;45325;-68
2021/03/28 11:35:47;;;;;;;53.78;37.80;;;24.60;38.90;;;;;;5070093;28;45432;-71
2021/03/28 11:38:18;;;;;;;54.83;37.45;;;24.50;38.80;;;;;;5070186;28;45424;-72
2021/03/28 11:41:10;;;;;;;58.38;39.15;;;24.60;38.90;;;;;;5067628;28;45175;-72
2021/03/28 11:43:40;;;;;;;56.85;38.47;;;24.60;38.90;;;;;;5066976;28;45309;-68
2021/03/28 11:46:24;;;;;;;57.83;39.97;;;24.60;39.00;;;;;;5063292;28;45454;-69
2021/03/28 11:48:53;;;;;;;56.07;38.07;;;24.60;39.20;;;;;;5064943;28;46232;-68
2021/03/28 11:51:28;;;;;;;50.40;36.95;;;24.60;39.10;;;;;;5066823;28;45276;-73
2021/03/28 11:53:55;;;;;;;47.35;35.20;;;24.70;39.10;;;;;;5067197;28;45469;-67
2021/03/28 11:56:40;;;;;;;51.60;35.55;;;24.80;39.10;;;;;;5067251;28;45621;-65
2021/03/28 11:59:19;;;;;;;49.35;35.00;;;24.80;39.00;;;;;;5070102;28;47021;-71
2021/03/28 12:02:01;;;;;;;48.08;35.05;;;24.80;39.00;;;;;;5070113;28;45477;-72
2021/03/28 12:04:38;;;;;;;43.75;33.13;;;24.90;38.90;;;;;;5067661;28;45259;-58
2021/03/28 12:07:25;;;;;;;49.33;32.97;;;24.80;38.90;;;;;;5084772;28;45456;-56
2021/03/28 12:10:04;;;;;;;43.08;32.40;;;24.80;38.90;;;;;;5066516;28;47134;-57
2021/03/28 12:13:05;;;;;;;46.55;31.00;;;24.80;39.00;;;;;;5065948;28;45463;-60
2021/03/28 12:15:43;;;;;;;23.17;15.57;;;24.80;39.00;;;;;;5067797;28;45475;-58
2021/03/28 12:18:25;;;;;;;19.50;13.95;;;24.70;37.10;;;;;;5068347;28;45538;-58
2021/03/28 12:21:03;;;;;;;15.68;10.43;;;24.50;36.90;;;;;;5066681;28;47131;-57
2021/03/28 12:23:34;;;;;;;14.32;9.95;;;24.40;36.80;;;;;;5078650;27;45421;-57
2021/03/28 12:26:22;;;;;;;15.98;9.68;;;24.30;37.10;;;;;;5067496;28;45488;-59
2021/03/28 12:28:51;;;;;;;13.27;8.93;;;24.30;37.20;;;;;;5068878;28;45612;-57
2021/03/28 12:31:36;;;;;;;11.40;7.55;;;24.40;37.30;;;;;;5061738;28;45500;-60
2021/03/28 12:34:28;;;;;;;13.75;8.02;;;24.40;37.00;;;;;;5064107;28;45620;-57
2021/03/28 12:37:02;;;;;;;12.90;7.57;;;24.30;36.70;;;;;;5062894;28;45591;-56
2021/03/28 12:39:29;;;;;;;10.43;7.05;;;24.20;36.90;;;;;;5064670;28;45512;-56
2021/03/28 12:42:03;;;;;;;9.25;6.45;;;24.10;37.00;;;;;;5062756;28;45804;-57
2021/03/28 12:44:39;;;;;;;9.90;6.03;;;24.10;37.00;;;;;;5064686;28;45396;-57
2021/03/28 12:47:14;;;;;;;10.30;6.70;;;24.10;37.00;;;;;;5064250;28;45647;-57
2021/03/28 12:49:50;;;;;;;9.77;6.72;;;24.10;37.30;;;;;;5065778;28;45538;-56
2021/03/28 12:52:24;;;;;;;10.65;6.25;;;24.00;37.40;;;;;;5059934;28;45693;-56
2021/03/28 12:54:49;;;;;;;10.10;6.23;;;23.90;37.40;;;;;;5029734;28;45863;-57
2021/03/28 12:57:27;;;;;;;9.95;6.45;;;23.90;37.50;;;;;;5061947;28;45416;-56
2021/03/28 12:59:58;;;;;;;9.15;5.95;;;23.90;37.50;;;;;;5061367;28;45509;-57
2021/03/28 13:02:34;;;;;;;10.90;5.70;;;23.90;37.60;;;;;;5045490;28;46508;-54
2021/03/28 13:05:00;;;;;;;9.43;5.70;;;23.80;37.50;;;;;;5045960;28;45589;-55
2021/03/28 13:07:40;;;;;;;8.93;6.00;;;23.90;37.80;;;;;;5064984;28;45495;-54
2021/03/28 13:10:08;;;;;;;9.23;5.45;;;24.00;37.70;;;;;;5063456;28;45724;-55
2021/03/28 13:12:34;;;;;;;10.00;5.93;;;24.10;37.80;;;;;;5065175;28;47221;-55
2021/03/28 13:15:20;;;;;;;10.50;5.32;;;24.10;37.80;;;;;;5064179;28;45366;-55
2021/03/28 13:17:46;;;;;;;8.88;5.03;;;24.10;37.70;;;;;;5063139;28;45387;-55
2021/03/28 13:20:36;;;;;;;9.13;5.05;;;24.10;37.90;;;;;;5047908;28;45578;-56
2021/03/28 13:23:26;;;;;;;10.98;5.70;;;24.20;37.90;;;;;;5064048;28;45602;-56
2021/03/28 13:26:27;;;;;;;8.25;5.25;;;24.10;38.00;;;;;;5062272;28;45842;-56
2021/03/28 13:28:55;;;;;;;8.65;5.00;;;24.20;37.90;;;;;;5058960;28;45431;-56
2021/03/28 13:31:50;;;;;;;8.50;4.60;;;24.20;38.00;;;;;;5063191;28;45526;-54
2021/03/28 13:34:18;;;;;;;7.82;5.03;;;24.20;37.80;;;;;;5060532;28;46251;-55
2021/03/28 13:36:55;;;;;;;8.10;5.03;;;24.30;37.80;;;;;;5059530;28;45456;-55
2021/03/28 13:39:21;;;;;;;8.80;5.43;;;24.30;37.80;;;;;;5049716;28;45494;-56
2021/03/28 13:42:00;;;;;;;7.53;4.60;;;24.30;37.80;;;;;;5065254;28;45415;-56
2021/03/28 13:44:59;;;;;;;10.85;5.35;;;24.30;37.80;;;;;;5047948;28;47481;-56
2021/03/28 13:48:07;;;;;;;7.68;4.80;;;24.30;37.80;;;;;;5062327;28;45437;-56
2021/03/28 13:50:50;;;;;;;6.65;3.92;;;24.30;37.80;;;;;;5053068;28;45397;-57
2021/03/28 13:53:16;;;;;;;8.75;4.10;;;24.30;37.70;;;;;;5045624;28;45545;-57
2021/03/28 13:55:48;;;;;;;8.48;4.70;;;24.30;37.70;;;;;;5046585;28;47004;-55
2021/03/28 13:58:28;;;;;;;6.53;4.22;;;24.40;37.80;;;;;;5065929;28;45420;-56
2021/03/28 14:01:19;;;;;;;6.38;4.32;;;24.40;37.70;;;;;;5029919;28;45323;-58
2021/03/28 14:03:45;;;;;;;6.88;4.00;;;24.40;37.70;;;;;;5056332;28;45501;-57
2021/03/28 14:06:31;;;;;;;6.93;4.15;;;24.30;37.80;;;;;;5064081;28;46918;-55
2021/03/28 14:09:13;;;;;;;8.55;4.63;;;24.40;37.80;;;;;;5064376;28;45339;-58
2021/03/28 14:11:50;;;;;;;6.75;3.90;;;24.30;37.80;;;;;;5064520;28;45333;-55